Long Grove, Iowa
Current Conditions -  °F | °C
As of 4:52 AM on Friday 31 Oct 2014 (Local Time) from KDVN Reporting Station
Broken Clouds Broken Clouds  
Wind Chill: 27°   Ceiling: 5000
Heat Index: 38°   Visibility: 10mi
Dew Point: 23°   Wind: 23mph
Humidity: 55%   Direction: 340°NNW
Pressure: 30.2"   Gusts: 36mph
Location:  41.7°N, 90.58°W
Report Text: KDVN 310952Z AUTO 34020G31KT 10SM FEW039 BKN050 03/M05 A3020 RMK AO2 PK WND 34032/0935 SLP230 T00331050 TSNO
Loading
Personal Weather Stations






























Interactive Weather Map
Tropical Storm Tracking
New forecast layout! Learn more

10-Day Weather Forecast

Advertisements
Track Severe Weather on mobile